sensor_id;sensor_type;location;lat;lon;timestamp;P1;durP1;ratioP1;P2;durP2;ratioP2
29812;SDS011;16707;48.106;11.548;2022-11-15T00:01:47;10.93;;;7.03;;
29812;SDS011;16707;48.106;11.548;2022-11-15T00:04:17;10.75;;;7.07;;
29812;SDS011;16707;48.106;11.548;2022-11-15T00:06:44;10.43;;;7.35;;
29812;SDS011;16707;48.106;11.548;2022-11-15T00:09:11;8.95;;;6.88;;
29812;SDS011;16707;48.106;11.548;2022-11-15T00:11:38;10.30;;;6.97;;
29812;SDS011;16707;48.106;11.548;2022-11-15T00:14:06;9.13;;;7.03;;
29812;SDS011;16707;48.106;11.548;2022-11-15T00:16:36;9.57;;;7.53;;
29812;SDS011;16707;48.106;11.548;2022-11-15T00:19:03;9.23;;;7.05;;
29812;SDS011;16707;48.106;11.548;2022-11-15T00:21:43;10.50;;;6.70;;
29812;SDS011;16707;48.106;11.548;2022-11-15T00:24:10;9.30;;;6.90;;
29812;SDS011;16707;48.106;11.548;2022-11-15T00:26:40;8.93;;;6.03;;
29812;SDS011;16707;48.106;11.548;2022-11-15T00:29:08;8.02;;;6.80;;
29812;SDS011;16707;48.106;11.548;2022-11-15T00:31:38;11.18;;;6.75;;
29812;SDS011;16707;48.106;11.548;2022-11-15T00:34:05;10.32;;;6.63;;
29812;SDS011;16707;48.106;11.548;2022-11-15T00:36:32;10.73;;;7.15;;
29812;SDS011;16707;48.106;11.548;2022-11-15T00:39:00;9.27;;;6.45;;
29812;SDS011;16707;48.106;11.548;2022-11-15T00:41:29;8.68;;;5.90;;
29812;SDS011;16707;48.106;11.548;2022-11-15T00:43:56;8.20;;;5.72;;
29812;SDS011;16707;48.106;11.548;2022-11-15T00:46:24;8.27;;;5.70;;
29812;SDS011;16707;48.106;11.548;2022-11-15T00:48:51;9.95;;;5.72;;
29812;SDS011;16707;48.106;11.548;2022-11-15T00:51:22;8.27;;;5.57;;
29812;SDS011;16707;48.106;11.548;2022-11-15T00:53:51;6.32;;;5.03;;
29812;SDS011;16707;48.106;11.548;2022-11-15T00:56:18;6.47;;;4.85;;
29812;SDS011;16707;48.106;11.548;2022-11-15T00:58:50;6.82;;;5.05;;
29812;SDS011;16707;48.106;11.548;2022-11-15T01:01:17;6.22;;;5.10;;
29812;SDS011;16707;48.106;11.548;2022-11-15T01:03:49;7.53;;;5.15;;
29812;SDS011;16707;48.106;11.548;2022-11-15T01:06:16;6.00;;;4.70;;
29812;SDS011;16707;48.106;11.548;2022-11-15T01:08:42;7.38;;;4.65;;
29812;SDS011;16707;48.106;11.548;2022-11-15T01:11:10;9.85;;;5.13;;
29812;SDS011;16707;48.106;11.548;2022-11-15T01:13:41;6.82;;;5.40;;
29812;SDS011;16707;48.106;11.548;2022-11-15T01:16:12;5.90;;;4.78;;
29812;SDS011;16707;48.106;11.548;2022-11-15T01:18:41;6.95;;;4.60;;
29812;SDS011;16707;48.106;11.548;2022-11-15T01:21:11;6.57;;;4.07;;
29812;SDS011;16707;48.106;11.548;2022-11-15T01:23:39;6.10;;;4.90;;
29812;SDS011;16707;48.106;11.548;2022-11-15T01:26:22;5.32;;;4.60;;
29812;SDS011;16707;48.106;11.548;2022-11-15T01:28:55;5.80;;;4.18;;
29812;SDS011;16707;48.106;11.548;2022-11-15T01:31:22;5.85;;;4.20;;
29812;SDS011;16707;48.106;11.548;2022-11-15T01:33:49;5.75;;;4.38;;
29812;SDS011;16707;48.106;11.548;2022-11-15T01:36:18;5.93;;;4.60;;
29812;SDS011;16707;48.106;11.548;2022-11-15T01:38:52;7.20;;;4.53;;
29812;SDS011;16707;48.106;11.548;2022-11-15T01:41:21;5.57;;;4.97;;
29812;SDS011;16707;48.106;11.548;2022-11-15T01:43:53;7.13;;;4.53;;
29812;SDS011;16707;48.106;11.548;2022-11-15T01:46:23;5.20;;;4.65;;
29812;SDS011;16707;48.106;11.548;2022-11-15T01:48:55;7.00;;;5.13;;
29812;SDS011;16707;48.106;11.548;2022-11-15T01:51:28;4.75;;;4.07;;
29812;SDS011;16707;48.106;11.548;2022-11-15T01:54:02;5.78;;;4.43;;
29812;SDS011;16707;48.106;11.548;2022-11-15T01:56:42;6.38;;;5.05;;
29812;SDS011;16707;48.106;11.548;2022-11-15T01:59:15;5.28;;;4.43;;
29812;SDS011;16707;48.106;11.548;2022-11-15T02:01:45;7.40;;;4.90;;
29812;SDS011;16707;48.106;11.548;2022-11-15T02:04:13;4.45;;;3.85;;
29812;SDS011;16707;48.106;11.548;2022-11-15T02:06:44;5.85;;;4.22;;
29812;SDS011;16707;48.106;11.548;2022-11-15T02:09:14;5.88;;;4.50;;
29812;SDS011;16707;48.106;11.548;2022-11-15T02:11:42;5.22;;;4.22;;
29812;SDS011;16707;48.106;11.548;2022-11-15T02:14:14;4.82;;;3.92;;
29812;SDS011;16707;48.106;11.548;2022-11-15T02:16:48;7.72;;;4.65;;
29812;SDS011;16707;48.106;11.548;2022-11-15T02:22:29;7.60;;;4.65;;
29812;SDS011;16707;48.106;11.548;2022-11-15T02:28:11;7.95;;;5.28;;
29812;SDS011;16707;48.106;11.548;2022-11-15T02:30:48;5.10;;;3.90;;
29812;SDS011;16707;48.106;11.548;2022-11-15T02:33:24;6.45;;;3.95;;
29812;SDS011;16707;48.106;11.548;2022-11-15T02:36:05;5.88;;;4.22;;
29812;SDS011;16707;48.106;11.548;2022-11-15T02:38:38;6.57;;;4.22;;
29812;SDS011;16707;48.106;11.548;2022-11-15T02:41:11;5.95;;;4.22;;
29812;SDS011;16707;48.106;11.548;2022-11-15T02:43:44;6.50;;;4.35;;
29812;SDS011;16707;48.106;11.548;2022-11-15T02:46:25;5.72;;;4.05;;
29812;SDS011;16707;48.106;11.548;2022-11-15T02:49:17;5.50;;;3.97;;
29812;SDS011;16707;48.106;11.548;2022-11-15T02:51:48;5.82;;;4.03;;
29812;SDS011;16707;48.106;11.548;2022-11-15T02:54:17;7.13;;;4.70;;
29812;SDS011;16707;48.106;11.548;2022-11-15T02:56:48;5.68;;;4.05;;
29812;SDS011;16707;48.106;11.548;2022-11-15T02:59:20;4.88;;;3.63;;
29812;SDS011;16707;48.106;11.548;2022-11-15T03:02:03;5.13;;;4.13;;
29812;SDS011;16707;48.106;11.548;2022-11-15T03:04:47;6.00;;;4.40;;
29812;SDS011;16707;48.106;11.548;2022-11-15T03:07:23;4.70;;;3.78;;
29812;SDS011;16707;48.106;11.548;2022-11-15T03:09:56;5.80;;;3.95;;
29812;SDS011;16707;48.106;11.548;2022-11-15T03:12:33;6.18;;;4.80;;
29812;SDS011;16707;48.106;11.548;2022-11-15T03:15:06;6.20;;;3.97;;
29812;SDS011;16707;48.106;11.548;2022-11-15T03:17:45;4.63;;;3.92;;
29812;SDS011;16707;48.106;11.548;2022-11-15T03:20:15;6.43;;;4.33;;
29812;SDS011;16707;48.106;11.548;2022-11-15T03:22:44;4.72;;;3.70;;
29812;SDS011;16707;48.106;11.548;2022-11-15T03:25:15;5.07;;;3.83;;
29812;SDS011;16707;48.106;11.548;2022-11-15T03:27:46;5.35;;;3.72;;
29812;SDS011;16707;48.106;11.548;2022-11-15T03:30:17;3.75;;;3.13;;
29812;SDS011;16707;48.106;11.548;2022-11-15T03:32:49;5.05;;;3.67;;
29812;SDS011;16707;48.106;11.548;2022-11-15T03:35:20;4.18;;;3.50;;
29812;SDS011;16707;48.106;11.548;2022-11-15T03:37:57;4.50;;;3.58;;
29812;SDS011;16707;48.106;11.548;2022-11-15T03:40:30;4.63;;;3.92;;
29812;SDS011;16707;48.106;11.548;2022-11-15T03:43:11;5.47;;;4.03;;
29812;SDS011;16707;48.106;11.548;2022-11-15T03:45:45;5.95;;;4.30;;
29812;SDS011;16707;48.106;11.548;2022-11-15T03:48:20;6.07;;;3.63;;
29812;SDS011;16707;48.106;11.548;2022-11-15T03:51:07;3.97;;;3.58;;
29812;SDS011;16707;48.106;11.548;2022-11-15T03:53:38;4.65;;;3.88;;
29812;SDS011;16707;48.106;11.548;2022-11-15T03:56:13;4.13;;;3.40;;
29812;SDS011;16707;48.106;11.548;2022-11-15T03:58:47;5.28;;;3.70;;
29812;SDS011;16707;48.106;11.548;2022-11-15T04:01:20;5.40;;;4.25;;
29812;SDS011;16707;48.106;11.548;2022-11-15T04:03:54;4.25;;;3.55;;
29812;SDS011;16707;48.106;11.548;2022-11-15T04:06:20;3.95;;;3.20;;
29812;SDS011;16707;48.106;11.548;2022-11-15T04:08:48;4.57;;;3.35;;
29812;SDS011;16707;48.106;11.548;2022-11-15T04:11:15;4.15;;;3.20;;
29812;SDS011;16707;48.106;11.548;2022-11-15T04:13:41;4.47;;;3.25;;
29812;SDS011;16707;48.106;11.548;2022-11-15T04:16:08;5.25;;;3.80;;
29812;SDS011;16707;48.106;11.548;2022-11-15T04:18:35;2.78;;;2.40;;
29812;SDS011;16707;48.106;11.548;2022-11-15T04:21:04;4.57;;;3.08;;
29812;SDS011;16707;48.106;11.548;2022-11-15T04:23:49;4.47;;;3.55;;
29812;SDS011;16707;48.106;11.548;2022-11-15T04:26:33;5.20;;;2.65;;
29812;SDS011;16707;48.106;11.548;2022-11-15T04:29:00;6.65;;;3.58;;
29812;SDS011;16707;48.106;11.548;2022-11-15T04:31:45;4.55;;;3.30;;
29812;SDS011;16707;48.106;11.548;2022-11-15T04:34:12;4.10;;;3.28;;
29812;SDS011;16707;48.106;11.548;2022-11-15T04:36:40;5.50;;;3.30;;
29812;SDS011;16707;48.106;11.548;2022-11-15T04:39:24;3.75;;;3.22;;
29812;SDS011;16707;48.106;11.548;2022-11-15T04:41:51;9.30;;;3.15;;
29812;SDS011;16707;48.106;11.548;2022-11-15T04:44:21;4.10;;;3.35;;
29812;SDS011;16707;48.106;11.548;2022-11-15T04:46:48;4.07;;;3.25;;
29812;SDS011;16707;48.106;11.548;2022-11-15T04:49:15;5.07;;;3.63;;
29812;SDS011;16707;48.106;11.548;2022-11-15T04:51:43;4.25;;;3.25;;
29812;SDS011;16707;48.106;11.548;2022-11-15T04:54:10;4.35;;;3.53;;
29812;SDS011;16707;48.106;11.548;2022-11-15T04:56:37;4.40;;;3.25;;
29812;SDS011;16707;48.106;11.548;2022-11-15T04:59:04;8.98;;;5.80;;
29812;SDS011;16707;48.106;11.548;2022-11-15T05:01:40;4.07;;;3.08;;
29812;SDS011;16707;48.106;11.548;2022-11-15T05:04:07;4.35;;;2.92;;
29812;SDS011;16707;48.106;11.548;2022-11-15T05:06:50;3.13;;;2.50;;
29812;SDS011;16707;48.106;11.548;2022-11-15T05:09:18;4.40;;;3.00;;
29812;SDS011;16707;48.106;11.548;2022-11-15T05:11:47;3.42;;;2.88;;
29812;SDS011;16707;48.106;11.548;2022-11-15T05:14:15;4.57;;;2.75;;
29812;SDS011;16707;48.106;11.548;2022-11-15T05:16:50;3.83;;;2.75;;
29812;SDS011;16707;48.106;11.548;2022-11-15T05:19:20;4.18;;;3.08;;
29812;SDS011;16707;48.106;11.548;2022-11-15T05:21:54;3.28;;;2.95;;
29812;SDS011;16707;48.106;11.548;2022-11-15T05:24:21;3.30;;;3.00;;
29812;SDS011;16707;48.106;11.548;2022-11-15T05:26:48;4.55;;;3.35;;
29812;SDS011;16707;48.106;11.548;2022-11-15T05:29:15;4.35;;;3.38;;
29812;SDS011;16707;48.106;11.548;2022-11-15T05:31:42;4.55;;;3.30;;
29812;SDS011;16707;48.106;11.548;2022-11-15T05:34:09;5.03;;;3.10;;
29812;SDS011;16707;48.106;11.548;2022-11-15T05:36:37;4.80;;;3.13;;
29812;SDS011;16707;48.106;11.548;2022-11-15T05:39:06;4.03;;;3.35;;
29812;SDS011;16707;48.106;11.548;2022-11-15T05:41:36;3.88;;;3.45;;
29812;SDS011;16707;48.106;11.548;2022-11-15T05:46:33;5.38;;;3.58;;
29812;SDS011;16707;48.106;11.548;2022-11-15T05:49:02;5.00;;;3.40;;
29812;SDS011;16707;48.106;11.548;2022-11-15T05:51:32;6.03;;;3.28;;
29812;SDS011;16707;48.106;11.548;2022-11-15T05:54:02;4.80;;;3.33;;
29812;SDS011;16707;48.106;11.548;2022-11-15T05:56:31;4.20;;;3.05;;
29812;SDS011;16707;48.106;11.548;2022-11-15T05:58:58;4.07;;;2.75;;
29812;SDS011;16707;48.106;11.548;2022-11-15T06:01:25;3.40;;;2.95;;
29812;SDS011;16707;48.106;11.548;2022-11-15T06:03:53;4.88;;;3.10;;
29812;SDS011;16707;48.106;11.548;2022-11-15T06:06:20;4.28;;;3.00;;
29812;SDS011;16707;48.106;11.548;2022-11-15T06:08:50;3.72;;;3.15;;
29812;SDS011;16707;48.106;11.548;2022-11-15T06:11:18;3.65;;;2.60;;
29812;SDS011;16707;48.106;11.548;2022-11-15T06:13:46;5.93;;;3.20;;
29812;SDS011;16707;48.106;11.548;2022-11-15T06:16:13;4.20;;;2.97;;
29812;SDS011;16707;48.106;11.548;2022-11-15T06:18:40;3.58;;;2.90;;
29812;SDS011;16707;48.106;11.548;2022-11-15T06:21:07;5.68;;;3.58;;
29812;SDS011;16707;48.106;11.548;2022-11-15T06:23:37;6.07;;;4.20;;
29812;SDS011;16707;48.106;11.548;2022-11-15T06:26:04;4.20;;;3.25;;
29812;SDS011;16707;48.106;11.548;2022-11-15T06:28:34;3.97;;;3.40;;
29812;SDS011;16707;48.106;11.548;2022-11-15T06:31:05;3.90;;;3.50;;
29812;SDS011;16707;48.106;11.548;2022-11-15T06:33:35;4.97;;;3.75;;
29812;SDS011;16707;48.106;11.548;2022-11-15T06:36:03;4.95;;;3.15;;
29812;SDS011;16707;48.106;11.548;2022-11-15T06:38:32;4.68;;;3.15;;
29812;SDS011;16707;48.106;11.548;2022-11-15T06:41:02;5.28;;;3.25;;
29812;SDS011;16707;48.106;11.548;2022-11-15T06:43:30;3.88;;;3.03;;
29812;SDS011;16707;48.106;11.548;2022-11-15T06:46:05;4.20;;;2.75;;
29812;SDS011;16707;48.106;11.548;2022-11-15T06:48:33;4.60;;;3.10;;
29812;SDS011;16707;48.106;11.548;2022-11-15T06:51:01;4.00;;;2.88;;
29812;SDS011;16707;48.106;11.548;2022-11-15T06:53:30;3.97;;;2.80;;
29812;SDS011;16707;48.106;11.548;2022-11-15T06:55:58;4.35;;;2.92;;
29812;SDS011;16707;48.106;11.548;2022-11-15T06:58:26;5.10;;;3.10;;
29812;SDS011;16707;48.106;11.548;2022-11-15T07:00:57;3.90;;;3.00;;
29812;SDS011;16707;48.106;11.548;2022-11-15T07:03:27;5.88;;;3.33;;
29812;SDS011;16707;48.106;11.548;2022-11-15T07:05:56;5.95;;;3.53;;
29812;SDS011;16707;48.106;11.548;2022-11-15T07:08:23;3.92;;;3.20;;
29812;SDS011;16707;48.106;11.548;2022-11-15T07:10:53;4.57;;;3.00;;
29812;SDS011;16707;48.106;11.548;2022-11-15T07:13:23;4.25;;;2.97;;
29812;SDS011;16707;48.106;11.548;2022-11-15T07:15:51;6.40;;;3.88;;
29812;SDS011;16707;48.106;11.548;2022-11-15T07:18:18;4.70;;;3.05;;
29812;SDS011;16707;48.106;11.548;2022-11-15T07:20:46;5.03;;;3.10;;
29812;SDS011;16707;48.106;11.548;2022-11-15T07:23:13;4.15;;;3.13;;
29812;SDS011;16707;48.106;11.548;2022-11-15T07:25:42;3.63;;;2.85;;
29812;SDS011;16707;48.106;11.548;2022-11-15T07:28:09;4.95;;;3.78;;
29812;SDS011;16707;48.106;11.548;2022-11-15T07:30:36;6.38;;;3.50;;
29812;SDS011;16707;48.106;11.548;2022-11-15T07:33:03;5.88;;;3.47;;
29812;SDS011;16707;48.106;11.548;2022-11-15T07:35:32;7.47;;;4.22;;
29812;SDS011;16707;48.106;11.548;2022-11-15T07:38:03;137.35;;;18.30;;
29812;SDS011;16707;48.106;11.548;2022-11-15T07:40:30;30.98;;;8.00;;
29812;SDS011;16707;48.106;11.548;2022-11-15T07:43:01;4.13;;;2.88;;
29812;SDS011;16707;48.106;11.548;2022-11-15T07:45:30;5.10;;;3.58;;
29812;SDS011;16707;48.106;11.548;2022-11-15T07:47:58;3.83;;;2.60;;
29812;SDS011;16707;48.106;11.548;2022-11-15T07:50:28;5.07;;;3.33;;
29812;SDS011;16707;48.106;11.548;2022-11-15T07:52:56;5.72;;;3.03;;
29812;SDS011;16707;48.106;11.548;2022-11-15T07:55:26;5.95;;;3.50;;
29812;SDS011;16707;48.106;11.548;2022-11-15T07:57:59;4.28;;;3.10;;
29812;SDS011;16707;48.106;11.548;2022-11-15T08:00:27;5.38;;;3.85;;
29812;SDS011;16707;48.106;11.548;2022-11-15T08:03:01;4.35;;;2.90;;
29812;SDS011;16707;48.106;11.548;2022-11-15T08:05:29;4.43;;;3.10;;
29812;SDS011;16707;48.106;11.548;2022-11-15T08:07:58;3.58;;;3.00;;
29812;SDS011;16707;48.106;11.548;2022-11-15T08:10:32;5.72;;;2.97;;
29812;SDS011;16707;48.106;11.548;2022-11-15T08:12:59;8.80;;;3.67;;
29812;SDS011;16707;48.106;11.548;2022-11-15T08:15:27;4.45;;;3.42;;
29812;SDS011;16707;48.106;11.548;2022-11-15T08:17:57;6.85;;;3.35;;
29812;SDS011;16707;48.106;11.548;2022-11-15T08:20:26;6.18;;;4.22;;
29812;SDS011;16707;48.106;11.548;2022-11-15T08:23:09;5.13;;;3.60;;
29812;SDS011;16707;48.106;11.548;2022-11-15T08:25:41;4.55;;;3.40;;
29812;SDS011;16707;48.106;11.548;2022-11-15T08:28:09;6.07;;;4.22;;
29812;SDS011;16707;48.106;11.548;2022-11-15T08:30:36;4.82;;;3.45;;
29812;SDS011;16707;48.106;11.548;2022-11-15T08:33:09;5.10;;;3.45;;
29812;SDS011;16707;48.106;11.548;2022-11-15T08:35:37;4.75;;;3.90;;
29812;SDS011;16707;48.106;11.548;2022-11-15T08:38:16;5.82;;;3.42;;
29812;SDS011;16707;48.106;11.548;2022-11-15T08:40:44;4.13;;;3.38;;
29812;SDS011;16707;48.106;11.548;2022-11-15T08:43:11;4.55;;;3.65;;
29812;SDS011;16707;48.106;11.548;2022-11-15T08:45:38;4.18;;;2.75;;
29812;SDS011;16707;48.106;11.548;2022-11-15T08:48:08;5.28;;;3.17;;
29812;SDS011;16707;48.106;11.548;2022-11-15T08:50:35;5.32;;;3.30;;
29812;SDS011;16707;48.106;11.548;2022-11-15T08:53:05;4.03;;;3.35;;
29812;SDS011;16707;48.106;11.548;2022-11-15T08:55:35;4.78;;;3.70;;
29812;SDS011;16707;48.106;11.548;2022-11-15T08:58:05;4.93;;;3.17;;
29812;SDS011;16707;48.106;11.548;2022-11-15T09:00:34;4.78;;;3.50;;
29812;SDS011;16707;48.106;11.548;2022-11-15T09:03:03;4.20;;;2.83;;
29812;SDS011;16707;48.106;11.548;2022-11-15T09:05:35;5.15;;;3.20;;
29812;SDS011;16707;48.106;11.548;2022-11-15T09:08:03;5.97;;;3.85;;
29812;SDS011;16707;48.106;11.548;2022-11-15T09:10:30;6.15;;;2.78;;
29812;SDS011;16707;48.106;11.548;2022-11-15T09:12:57;4.63;;;2.90;;
29812;SDS011;16707;48.106;11.548;2022-11-15T09:15:26;5.57;;;3.20;;
29812;SDS011;16707;48.106;11.548;2022-11-15T09:17:57;4.57;;;2.90;;
29812;SDS011;16707;48.106;11.548;2022-11-15T09:20:24;4.38;;;2.60;;
29812;SDS011;16707;48.106;11.548;2022-11-15T09:22:51;4.05;;;2.85;;
29812;SDS011;16707;48.106;11.548;2022-11-15T09:25:18;3.55;;;1.98;;
29812;SDS011;16707;48.106;11.548;2022-11-15T09:27:45;3.13;;;2.10;;
29812;SDS011;16707;48.106;11.548;2022-11-15T09:30:14;4.63;;;2.30;;
29812;SDS011;16707;48.106;11.548;2022-11-15T09:32:43;8.52;;;2.78;;
29812;SDS011;16707;48.106;11.548;2022-11-15T09:35:10;4.13;;;2.70;;
29812;SDS011;16707;48.106;11.548;2022-11-15T09:37:37;3.47;;;2.50;;
29812;SDS011;16707;48.106;11.548;2022-11-15T09:40:05;3.38;;;2.40;;
29812;SDS011;16707;48.106;11.548;2022-11-15T09:42:38;3.47;;;2.03;;
29812;SDS011;16707;48.106;11.548;2022-11-15T09:45:20;2.97;;;2.00;;
29812;SDS011;16707;48.106;11.548;2022-11-15T09:48:03;3.67;;;2.33;;
29812;SDS011;16707;48.106;11.548;2022-11-15T09:50:58;4.35;;;2.80;;
29812;SDS011;16707;48.106;11.548;2022-11-15T09:53:29;4.28;;;2.53;;
29812;SDS011;16707;48.106;11.548;2022-11-15T09:56:00;4.72;;;2.40;;
29812;SDS011;16707;48.106;11.548;2022-11-15T09:58:33;3.25;;;2.33;;
29812;SDS011;16707;48.106;11.548;2022-11-15T10:01:06;2.60;;;2.13;;
29812;SDS011;16707;48.106;11.548;2022-11-15T10:03:40;3.47;;;2.45;;
29812;SDS011;16707;48.106;11.548;2022-11-15T10:06:08;2.33;;;2.13;;
29812;SDS011;16707;48.106;11.548;2022-11-15T10:08:47;3.53;;;2.33;;
29812;SDS011;16707;48.106;11.548;2022-11-15T10:11:22;4.00;;;2.30;;
29812;SDS011;16707;48.106;11.548;2022-11-15T10:13:56;3.25;;;2.65;;
29812;SDS011;16707;48.106;11.548;2022-11-15T10:19:28;2.97;;;2.22;;
29812;SDS011;16707;48.106;11.548;2022-11-15T10:22:09;3.47;;;2.13;;
29812;SDS011;16707;48.106;11.548;2022-11-15T10:24:47;2.38;;;1.90;;
29812;SDS011;16707;48.106;11.548;2022-11-15T10:27:17;5.13;;;2.60;;
29812;SDS011;16707;48.106;11.548;2022-11-15T10:29:45;4.43;;;2.42;;
29812;SDS011;16707;48.106;11.548;2022-11-15T10:32:15;2.88;;;2.28;;
29812;SDS011;16707;48.106;11.548;2022-11-15T10:34:46;3.25;;;2.17;;
29812;SDS011;16707;48.106;11.548;2022-11-15T10:37:15;2.97;;;2.40;;
29812;SDS011;16707;48.106;11.548;2022-11-15T10:40:02;2.65;;;2.25;;
29812;SDS011;16707;48.106;11.548;2022-11-15T10:42:33;3.40;;;2.28;;
29812;SDS011;16707;48.106;11.548;2022-11-15T10:45:01;2.95;;;2.00;;
29812;SDS011;16707;48.106;11.548;2022-11-15T10:47:28;4.07;;;2.30;;
29812;SDS011;16707;48.106;11.548;2022-11-15T10:50:05;3.83;;;2.58;;
29812;SDS011;16707;48.106;11.548;2022-11-15T10:52:52;4.20;;;2.30;;
29812;SDS011;16707;48.106;11.548;2022-11-15T10:55:21;4.32;;;2.40;;
29812;SDS011;16707;48.106;11.548;2022-11-15T10:57:52;2.30;;;1.80;;
29812;SDS011;16707;48.106;11.548;2022-11-15T11:00:32;2.78;;;2.28;;
29812;SDS011;16707;48.106;11.548;2022-11-15T11:03:04;2.20;;;2.00;;
29812;SDS011;16707;48.106;11.548;2022-11-15T11:05:35;3.70;;;2.03;;
29812;SDS011;16707;48.106;11.548;2022-11-15T11:08:04;3.05;;;1.70;;
29812;SDS011;16707;48.106;11.548;2022-11-15T11:10:51;2.88;;;1.60;;
29812;SDS011;16707;48.106;11.548;2022-11-15T11:13:22;2.70;;;1.40;;
29812;SDS011;16707;48.106;11.548;2022-11-15T11:15:55;1.77;;;1.48;;
29812;SDS011;16707;48.106;11.548;2022-11-15T11:18:33;1.58;;;1.38;;
29812;SDS011;16707;48.106;11.548;2022-11-15T11:21:08;1.75;;;1.65;;
29812;SDS011;16707;48.106;11.548;2022-11-15T11:23:45;1.88;;;1.60;;
29812;SDS011;16707;48.106;11.548;2022-11-15T11:26:28;3.38;;;1.85;;
29812;SDS011;16707;48.106;11.548;2022-11-15T11:29:11;3.60;;;1.85;;
29812;SDS011;16707;48.106;11.548;2022-11-15T11:31:52;2.90;;;1.95;;
29812;SDS011;16707;48.106;11.548;2022-11-15T11:34:40;2.03;;;1.83;;
29812;SDS011;16707;48.106;11.548;2022-11-15T11:37:21;2.10;;;1.90;;
29812;SDS011;16707;48.106;11.548;2022-11-15T11:39:59;2.25;;;2.00;;
29812;SDS011;16707;48.106;11.548;2022-11-15T11:42:45;2.10;;;1.90;;
29812;SDS011;16707;48.106;11.548;2022-11-15T11:45:27;3.25;;;1.50;;
29812;SDS011;16707;48.106;11.548;2022-11-15T11:48:19;1.60;;;1.42;;
29812;SDS011;16707;48.106;11.548;2022-11-15T11:50:53;1.60;;;1.50;;
29812;SDS011;16707;48.106;11.548;2022-11-15T11:53:32;1.80;;;1.70;;
29812;SDS011;16707;48.106;11.548;2022-11-15T11:56:12;2.42;;;1.42;;
29812;SDS011;16707;48.106;11.548;2022-11-15T11:59:07;2.28;;;1.70;;
29812;SDS011;16707;48.106;11.548;2022-11-15T12:01:42;2.05;;;1.50;;
29812;SDS011;16707;48.106;11.548;2022-11-15T12:04:15;1.83;;;1.65;;
29812;SDS011;16707;48.106;11.548;2022-11-15T12:06:51;1.80;;;1.70;;
29812;SDS011;16707;48.106;11.548;2022-11-15T12:09:27;2.30;;;1.63;;
29812;SDS011;16707;48.106;11.548;2022-11-15T12:12:01;2.50;;;1.75;;
29812;SDS011;16707;48.106;11.548;2022-11-15T12:14:37;26.48;;;5.35;;
29812;SDS011;16707;48.106;11.548;2022-11-15T12:17:09;3.05;;;1.70;;
29812;SDS011;16707;48.106;11.548;2022-11-15T12:19:37;7.32;;;2.15;;
29812;SDS011;16707;48.106;11.548;2022-11-15T12:22:09;3.55;;;1.63;;
29812;SDS011;16707;48.106;11.548;2022-11-15T12:24:45;2.17;;;1.83;;
29812;SDS011;16707;48.106;11.548;2022-11-15T12:27:18;4.45;;;1.90;;
29812;SDS011;16707;48.106;11.548;2022-11-15T12:29:56;1.65;;;1.55;;
29812;SDS011;16707;48.106;11.548;2022-11-15T12:32:27;1.55;;;1.45;;
29812;SDS011;16707;48.106;11.548;2022-11-15T12:35:01;2.70;;;2.17;;
29812;SDS011;16707;48.106;11.548;2022-11-15T12:37:41;1.73;;;1.60;;
29812;SDS011;16707;48.106;11.548;2022-11-15T12:40:21;1.52;;;1.42;;
29812;SDS011;16707;48.106;11.548;2022-11-15T12:46:05;2.38;;;1.50;;
29812;SDS011;16707;48.106;11.548;2022-11-15T12:48:45;1.55;;;1.45;;
29812;SDS011;16707;48.106;11.548;2022-11-15T12:51:16;2.88;;;1.60;;
29812;SDS011;16707;48.106;11.548;2022-11-15T12:53:47;2.00;;;1.80;;
29812;SDS011;16707;48.106;11.548;2022-11-15T12:56:20;2.72;;;1.73;;
29812;SDS011;16707;48.106;11.548;2022-11-15T12:58:50;2.00;;;1.77;;
29812;SDS011;16707;48.106;11.548;2022-11-15T13:04:25;2.83;;;1.92;;
29812;SDS011;16707;48.106;11.548;2022-11-15T13:07:02;2.42;;;1.88;;
29812;SDS011;16707;48.106;11.548;2022-11-15T13:21:20;4.10;;;2.25;;
29812;SDS011;16707;48.106;11.548;2022-11-15T13:24:12;3.13;;;1.88;;
29812;SDS011;16707;48.106;11.548;2022-11-15T13:26:41;2.00;;;1.80;;
29812;SDS011;16707;48.106;11.548;2022-11-15T13:29:19;2.22;;;1.80;;
29812;SDS011;16707;48.106;11.548;2022-11-15T13:31:50;1.92;;;1.55;;
29812;SDS011;16707;48.106;11.548;2022-11-15T13:34:22;3.00;;;1.70;;
29812;SDS011;16707;48.106;11.548;2022-11-15T13:36:53;2.45;;;1.90;;
29812;SDS011;16707;48.106;11.548;2022-11-15T13:39:26;2.90;;;2.00;;
29812;SDS011;16707;48.106;11.548;2022-11-15T13:41:55;2.92;;;2.10;;
29812;SDS011;16707;48.106;11.548;2022-11-15T13:44:25;3.45;;;1.90;;
29812;SDS011;16707;48.106;11.548;2022-11-15T13:47:03;3.55;;;1.85;;
29812;SDS011;16707;48.106;11.548;2022-11-15T13:49:38;3.40;;;1.60;;
29812;SDS011;16707;48.106;11.548;2022-11-15T13:52:06;2.60;;;1.70;;
29812;SDS011;16707;48.106;11.548;2022-11-15T13:54:35;2.20;;;2.00;;
29812;SDS011;16707;48.106;11.548;2022-11-15T13:57:10;2.50;;;1.85;;
29812;SDS011;16707;48.106;11.548;2022-11-15T13:59:45;3.85;;;2.00;;
29812;SDS011;16707;48.106;11.548;2022-11-15T14:02:15;2.25;;;1.80;;
29812;SDS011;16707;48.106;11.548;2022-11-15T14:04:46;2.58;;;2.00;;
29812;SDS011;16707;48.106;11.548;2022-11-15T14:07:18;2.97;;;2.00;;
29812;SDS011;16707;48.106;11.548;2022-11-15T14:09:47;3.03;;;1.90;;
29812;SDS011;16707;48.106;11.548;2022-11-15T14:12:24;2.10;;;1.77;;
29812;SDS011;16707;48.106;11.548;2022-11-15T14:14:57;2.55;;;2.10;;
29812;SDS011;16707;48.106;11.548;2022-11-15T14:17:36;4.80;;;2.45;;
29812;SDS011;16707;48.106;11.548;2022-11-15T14:23:00;3.42;;;2.03;;
29812;SDS011;16707;48.106;11.548;2022-11-15T14:25:31;3.17;;;1.90;;
29812;SDS011;16707;48.106;11.548;2022-11-15T14:28:12;3.03;;;2.10;;
29812;SDS011;16707;48.106;11.548;2022-11-15T14:30:55;2.50;;;1.83;;
29812;SDS011;16707;48.106;11.548;2022-11-15T14:33:28;2.67;;;2.00;;
29812;SDS011;16707;48.106;11.548;2022-11-15T14:35:58;2.90;;;1.98;;
29812;SDS011;16707;48.106;11.548;2022-11-15T14:38:30;5.33;;;2.50;;
29812;SDS011;16707;48.106;11.548;2022-11-15T14:40:58;5.70;;;2.28;;
29812;SDS011;16707;48.106;11.548;2022-11-15T14:43:25;2.72;;;1.80;;
29812;SDS011;16707;48.106;11.548;2022-11-15T14:45:52;3.05;;;2.25;;
29812;SDS011;16707;48.106;11.548;2022-11-15T14:48:23;2.17;;;1.90;;
29812;SDS011;16707;48.106;11.548;2022-11-15T14:50:50;4.63;;;2.33;;
29812;SDS011;16707;48.106;11.548;2022-11-15T14:53:18;3.47;;;2.00;;
29812;SDS011;16707;48.106;11.548;2022-11-15T14:55:45;5.75;;;2.35;;
29812;SDS011;16707;48.106;11.548;2022-11-15T14:58:12;3.05;;;2.10;;
29812;SDS011;16707;48.106;11.548;2022-11-15T15:00:40;4.57;;;2.13;;
29812;SDS011;16707;48.106;11.548;2022-11-15T15:03:07;3.08;;;2.10;;
29812;SDS011;16707;48.106;11.548;2022-11-15T15:05:36;2.58;;;2.00;;
29812;SDS011;16707;48.106;11.548;2022-11-15T15:08:06;3.72;;;1.95;;
29812;SDS011;16707;48.106;11.548;2022-11-15T15:10:34;2.72;;;2.20;;
29812;SDS011;16707;48.106;11.548;2022-11-15T15:13:04;3.70;;;2.40;;
29812;SDS011;16707;48.106;11.548;2022-11-15T15:15:40;6.95;;;4.13;;
29812;SDS011;16707;48.106;11.548;2022-11-15T15:18:07;7.93;;;5.18;;
29812;SDS011;16707;48.106;11.548;2022-11-15T15:20:38;6.88;;;4.40;;
29812;SDS011;16707;48.106;11.548;2022-11-15T15:23:13;4.78;;;3.20;;
29812;SDS011;16707;48.106;11.548;2022-11-15T15:25:42;3.97;;;2.53;;
29812;SDS011;16707;48.106;11.548;2022-11-15T15:28:16;5.13;;;2.90;;
29812;SDS011;16707;48.106;11.548;2022-11-15T15:30:43;4.88;;;3.80;;
29812;SDS011;16707;48.106;11.548;2022-11-15T15:33:11;5.00;;;3.78;;